Terminal Aerodrome Forecast
Issued by NWS Wichita, KS

Home | Current Version | Previous Version | Text Only | Print | Product List | Glossary Off
Versions: 1 2 3 4 5 6 7 8 9 10 11 12 13 14 15 16 17 18 19 20 21 22 23 24 25 26

573
FTUS43 KICT 211725
TAFICT
TAF
KICT 211725Z 2118/2218 03012KT P6SM OVC100
     FM212300 04011KT P6SM VCSH OVC035
     FM220100 05010KT P6SM -SNPL OVC020
     FM220300 05009KT 4SM -FZRAPL OVC008
      TEMPO 2203/2206 2SM TSPL OVC012CB
     FM220600 04009KT 4SM -FZRAPL OVC008
     FM221200 05007KT 3SM -FZDZ BR OVC005
     FM221600 07006KT P6SM OVC012=

USA.gov is the U.S. government's official web portal to all federal, state and local government web resources and services.